Asheville Regional Airport (AVL)

 

Airport Diagram
Current Weather/Forecast (VFR Conditions)
METAR KAVL 290254Z 00000KT 10SM CLR 06/02 A3016 RMK AO2 SLP206 T00610022 53010
TAF KAVL 282325Z 2900/2924 34005KT P6SM FEW250 FM291200 17004KT P6SM SCT060 BKN200 FM291500 16006KT P6SM OVC060 FM291700 14006KT P6SM OVC040 PROB30 2922/2923 4SM -RA BR OVC025 FM292300 14006KT P6SM -RA OVC028

All Charts
General
Chart Name Download
AIRPORT DIAGRAM
TAKEOFF MINIMUMS
ALTERNATE MINIMUMS

Departures
Chart Name Download
ASHEVILLE SIX

Approaches
Chart Name Download
ILS OR LOC RWY 35
RNAV (GPS) RWY 17
RNAV (GPS) RWY 35
LOC RWY 17


Inbound Traffic (Arrivals)

No inbound traffic.


Outbound Traffic (Departures)

No outbound traffic.